Apollon — SW3232 — position and weather

sailwx.info

Track history (hours):
 
Tides and Currents Weather Stations Pressure Air Temp Water Temp Dewpoint Dewpoint Depression Visibility Wind Speed Wind Dir Waves Ship Positions

Apollon

Last reported at 2017-Oct-22 16:26 UTC. Time now 2017-Oct-22 23:11 UTC.
Position N 37°48' E 023°37'.

Length 24 m; draft 3.2 m.

Type: Fishing. MMSI: 240230000.

Date/timePositionNaut miles runAvg speedWind from/ knotsBaromVisibWave heightAir tempDewpointWater temp
2017-Oct-22 16:26N 37°48' E 023°37'3 7.9
2017-Oct-22 16:00N 37°51' E 023°36'4 8.0
2017-Oct-22 15:31N 37°55' E 023°35'3 6.5
2017-Oct-22 15:01N 37°58' E 023°32'0 0.0
2017-Oct-21 06:01N 37°57' E 023°32'0 0.0
2017-Oct-21 05:58N 37°57' E 023°32'3 6.4
2017-Oct-21 05:30N 37°57' E 023°36'1 1.3
2017-Oct-21 04:59N 37°57' E 023°37'0 0.0
2017-Oct-21 04:28N 37°57' E 023°37'0 0.0
2017-Oct-21 03:57N 37°57' E 023°37'0 0.0
2017-Oct-21 03:29N 37°57' E 023°37'0 0.0
2017-Oct-21 02:58N 37°57' E 023°37'2 3.7
2017-Oct-21 02:30N 37°56' E 023°36'4 8.2
2017-Oct-21 02:00N 37°52' E 023°37'4 8.0
2017-Oct-21 01:30N 37°48' E 023°38'3 5.2
2017-Oct-21 00:59N 37°45' E 023°39'0 1.0
2017-Oct-21 00:30N 37°45' E 023°38'0 0.4
2017-Oct-21 00:00N 37°45' E 023°38'0 0.2
2017-Oct-20 23:30N 37°45' E 023°38'0 0.4
2017-Oct-20 22:59N 37°46' E 023°38'0 0.9
2017-Oct-20 22:27N 37°46' E 023°37'1 2.1
2017-Oct-20 21:59N 37°45' E 023°38'0 0.8
2017-Oct-20 21:29N 37°45' E 023°38'0 0.4
2017-Oct-20 20:57N 37°46' E 023°37'0 0.3
2017-Oct-20 20:29N 37°46' E 023°37'0 0.2
2017-Oct-20 20:01N 37°46' E 023°37'0 0.7
2017-Oct-20 19:30N 37°46' E 023°37'0 0.2
2017-Oct-20 19:00N 37°46' E 023°38'1 1.7
2017-Oct-20 18:31N 37°45' E 023°38'1 1.9
2017-Oct-20 18:01N 37°45' E 023°37'4 8.3
2017-Oct-20 17:31N 37°49' E 023°35'4 7.9
2017-Oct-20 17:01N 37°52' E 023°34'4 7.9
2017-Oct-20 16:31N 37°56' E 023°35'2 0.2
2017-Oct-20 06:45N 37°57' E 023°32'0 0.1
2017-Oct-20 06:30N 37°57' E 023°32'4 7.0
2017-Oct-20 05:59N 37°57' E 023°37'0 0.0
2017-Oct-20 05:28N 37°57' E 023°37'0 0.0
2017-Oct-20 05:01N 37°57' E 023°37'0 0.0
2017-Oct-20 04:31N 37°57' E 023°37'1 3.0
2017-Oct-20 04:00N 37°56' E 023°37'4 7.8
2017-Oct-20 03:30N 37°52' E 023°38'0 0.5
2017-Oct-20 02:53N 37°53' E 023°38'0 0.3
2017-Oct-20 02:28N 37°53' E 023°38'0 0.4
2017-Oct-20 02:00N 37°53' E 023°38'0 0.4
2017-Oct-20 01:28N 37°53' E 023°38'0 0.4
2017-Oct-20 00:58N 37°53' E 023°39'0 0.2
2017-Oct-20 00:29N 37°53' E 023°39'0 0.1
2017-Oct-19 23:54N 37°54' E 023°38'0 0.4
2017-Oct-19 23:29N 37°53' E 023°39'0 0.4
2017-Oct-19 23:00N 37°53' E 023°39'0 0.4
2017-Oct-19 22:26N 37°53' E 023°39'0 0.5
2017-Oct-19 21:55N 37°53' E 023°39'0 0.4
2017-Oct-19 21:28N 37°53' E 023°39'0 0.4
2017-Oct-19 21:01N 37°52' E 023°39'0 0.3
2017-Oct-19 20:27N 37°52' E 023°39'0 0.2
2017-Oct-19 20:00N 37°53' E 023°39'0 0.2
2017-Oct-19 19:28N 37°53' E 023°39'0 0.1
2017-Oct-19 19:00N 37°53' E 023°39'0 0.1
2017-Oct-19 18:29N 37°53' E 023°39'0 0.9
2017-Oct-19 18:00N 37°53' E 023°39'0 0.2
2017-Oct-19 17:30N 37°53' E 023°39'1 1.1
2017-Oct-19 17:00N 37°54' E 023°38'4 7.1
2017-Oct-19 16:30N 37°57' E 023°36'10 0.4
2017-Oct-18 17:06N 37°48' E 023°28'1 8.1
2017-Oct-18 17:00N 37°49' E 023°29'4 8.3
2017-Oct-18 16:30N 37°53' E 023°32'4 8.3
2017-Oct-18 16:00N 37°56' E 023°35'2 4.6
2017-Oct-18 15:29N 37°57' E 023°32'0 0.0
2017-Oct-18 05:38N 37°57' E 023°32'0 2.2
2017-Oct-18 05:30N 37°58' E 023°32'3 6.7
2017-Oct-18 05:01N 37°57' E 023°37'0 0.0
2017-Oct-18 04:30N 37°57' E 023°37'0 0.0
2017-Oct-18 03:58N 37°57' E 023°37'0 0.0
2017-Oct-18 03:31N 37°57' E 023°37'0 0.0
2017-Oct-18 03:00N 37°57' E 023°37'0 0.3
2017-Oct-18 02:30N 37°57' E 023°37'4 8.0
2017-Oct-18 02:01N 37°55' E 023°33'10 1.4
2017-Oct-17 19:11N 37°50' E 023°23'0 0.7
2017-Oct-17 18:59N 37°50' E 023°23'2 3.6
2017-Oct-17 18:30N 37°50' E 023°25'4 8.2
2017-Oct-17 18:00N 37°52' E 023°29'4 8.1
2017-Oct-17 17:30N 37°55' E 023°33'2 4.9
2017-Oct-17 17:00N 37°57' E 023°33'1 1.8
2017-Oct-17 16:28N 37°57' E 023°32'0 0.0
2017-Oct-17 06:53N 37°57' E 023°32'0 0.0
2017-Oct-17 06:28N 37°57' E 023°32'0 0.0
2017-Oct-17 05:55N 37°57' E 023°32'3 7.3
2017-Oct-17 05:30N 37°57' E 023°36'1 1.3
2017-Oct-17 04:58N 37°57' E 023°37'0 0.0
2017-Oct-17 04:25N 37°57' E 023°37'0 0.0
2017-Oct-17 03:54N 37°57' E 023°37'1 2.8
2017-Oct-17 03:30N 37°57' E 023°36'10 1.3
2017-Oct-16 19:52N 37°51' E 023°25'0 1.1
2017-Oct-16 19:30N 37°51' E 023°24'1 1.9
2017-Oct-16 19:00N 37°50' E 023°25'4 8.1
2017-Oct-16 18:30N 37°52' E 023°29'4 7.9
2017-Oct-16 18:00N 37°55' E 023°33'2 4.6
2017-Oct-16 17:30N 37°57' E 023°33'7 0.4
2017-Oct-16 01:41N 37°52' E 023°28'1 4.3
2017-Oct-16 01:30N 37°51' E 023°27'3 0.4
2017-Oct-15 17:49N 37°50' E 023°23'0 0.9
2017-Oct-15 17:23N 37°50' E 023°24'3 7.2
2017-Oct-15 17:00N 37°51' E 023°27'4 7.8
2017-Oct-15 16:30N 37°53' E 023°30'4 7.9
2017-Oct-15 16:00N 37°56' E 023°34'2 4.0
2017-Oct-15 15:30N 37°57' E 023°32'0 0.0
2017-Oct-14 07:22N 37°57' E 023°32'0 0.0
2017-Oct-14 06:58N 37°57' E 023°32'0 0.0
2017-Oct-14 06:28N 37°57' E 023°32'0 0.0
2017-Oct-14 05:56N 37°57' E 023°32'0 0.0
2017-Oct-14 05:24N 37°57' E 023°32'0 0.0
2017-Oct-14 04:59N 37°57' E 023°32'3 5.7
2017-Oct-14 04:30N 37°57' E 023°36'1 2.0
2017-Oct-14 03:58N 37°57' E 023°37'0 0.0
2017-Oct-14 03:30N 37°57' E 023°37'0 0.0
2017-Oct-14 02:57N 37°57' E 023°37'0 0.0
2017-Oct-14 02:28N 37°57' E 023°37'0 0.0
2017-Oct-14 01:59N 37°57' E 023°37'0 0.0
2017-Oct-14 01:25N 37°57' E 023°37'2 5.4
2017-Oct-14 01:00N 37°56' E 023°35'1 0.2
2017-Oct-13 16:32N 37°55' E 023°33'0 8.0
2017-Oct-13 16:30N 37°55' E 023°33'2 4.5
2017-Oct-13 16:01N 37°58' E 023°32'0 0.0
2017-Oct-13 03:44N 37°57' E 023°32'0 1.7
2017-Oct-13 03:30N 37°58' E 023°33'3 6.4
2017-Oct-13 02:59N 37°57' E 023°37'0 0.0
2017-Oct-13 02:29N 37°57' E 023°37'0 0.0
2017-Oct-13 01:57N 37°57' E 023°37'0 0.0
2017-Oct-13 01:27N 37°57' E 023°37'0 0.0
2017-Oct-13 00:59N 37°57' E 023°37'1 2.4
2017-Oct-13 00:30N 37°57' E 023°36'4 8.6
2017-Oct-13 00:00N 37°54' E 023°32'8 1.2
2017-Oct-12 17:34N 37°49' E 023°23'0 8.7
2017-Oct-12 17:30N 37°50' E 023°24'5 9.3
2017-Oct-12 17:00N 37°52' E 023°29'4 8.1
2017-Oct-12 16:30N 37°55' E 023°33'  
Track history (hours):
 
Tides and Currents Weather Stations Pressure Air Temp Water Temp Dewpoint Dewpoint Depression Visibility Wind Speed Wind Dir Waves Ship Positions

Apollon

Last reported at 2017-Oct-22 16:26 UTC. Time now 2017-Oct-22 23:11 UTC.
Position N 37°48' E 023°37'.

Length 24 m; draft 3.2 m.

Type: Fishing. MMSI: 240230000.

Date/timePositionNaut miles runAvg speedWind from/ knotsBaromVisibWave heightAir tempDewpointWater temp
2017-Oct-22 16:26N 37°48' E 023°37'3 7.9
2017-Oct-22 16:00N 37°51' E 023°36'4 8.0
2017-Oct-22 15:31N 37°55' E 023°35'3 6.5
2017-Oct-22 15:01N 37°58' E 023°32'0 0.0
2017-Oct-21 06:01N 37°57' E 023°32'0 0.0
2017-Oct-21 05:58N 37°57' E 023°32'3 6.4
2017-Oct-21 05:30N 37°57' E 023°36'1 1.3
2017-Oct-21 04:59N 37°57' E 023°37'0 0.0
2017-Oct-21 04:28N 37°57' E 023°37'0 0.0
2017-Oct-21 03:57N 37°57' E 023°37'0 0.0
2017-Oct-21 03:29N 37°57' E 023°37'0 0.0
2017-Oct-21 02:58N 37°57' E 023°37'2 3.7
2017-Oct-21 02:30N 37°56' E 023°36'4 8.2
2017-Oct-21 02:00N 37°52' E 023°37'4 8.0
2017-Oct-21 01:30N 37°48' E 023°38'3 5.2
2017-Oct-21 00:59N 37°45' E 023°39'0 1.0
2017-Oct-21 00:30N 37°45' E 023°38'0 0.4
2017-Oct-21 00:00N 37°45' E 023°38'0 0.2
2017-Oct-20 23:30N 37°45' E 023°38'0 0.4
2017-Oct-20 22:59N 37°46' E 023°38'0 0.9
2017-Oct-20 22:27N 37°46' E 023°37'1 2.1
2017-Oct-20 21:59N 37°45' E 023°38'0 0.8
2017-Oct-20 21:29N 37°45' E 023°38'0 0.4
2017-Oct-20 20:57N 37°46' E 023°37'0 0.3
2017-Oct-20 20:29N 37°46' E 023°37'0 0.2
2017-Oct-20 20:01N 37°46' E 023°37'0 0.7
2017-Oct-20 19:30N 37°46' E 023°37'0 0.2
2017-Oct-20 19:00N 37°46' E 023°38'1 1.7
2017-Oct-20 18:31N 37°45' E 023°38'1 1.9
2017-Oct-20 18:01N 37°45' E 023°37'4 8.3
2017-Oct-20 17:31N 37°49' E 023°35'4 7.9
2017-Oct-20 17:01N 37°52' E 023°34'4 7.9
2017-Oct-20 16:31N 37°56' E 023°35'2 0.2
2017-Oct-20 06:45N 37°57' E 023°32'0 0.1
2017-Oct-20 06:30N 37°57' E 023°32'4 7.0
2017-Oct-20 05:59N 37°57' E 023°37'0 0.0
2017-Oct-20 05:28N 37°57' E 023°37'0 0.0
2017-Oct-20 05:01N 37°57' E 023°37'0 0.0
2017-Oct-20 04:31N 37°57' E 023°37'1 3.0
2017-Oct-20 04:00N 37°56' E 023°37'4 7.8
2017-Oct-20 03:30N 37°52' E 023°38'0 0.5
2017-Oct-20 02:53N 37°53' E 023°38'0 0.3
2017-Oct-20 02:28N 37°53' E 023°38'0 0.4
2017-Oct-20 02:00N 37°53' E 023°38'0 0.4
2017-Oct-20 01:28N 37°53' E 023°38'0 0.4
2017-Oct-20 00:58N 37°53' E 023°39'0 0.2
2017-Oct-20 00:29N 37°53' E 023°39'0 0.1
2017-Oct-19 23:54N 37°54' E 023°38'0 0.4
2017-Oct-19 23:29N 37°53' E 023°39'0 0.4
2017-Oct-19 23:00N 37°53' E 023°39'0 0.4
2017-Oct-19 22:26N 37°53' E 023°39'0 0.5
2017-Oct-19 21:55N 37°53' E 023°39'0 0.4
2017-Oct-19 21:28N 37°53' E 023°39'0 0.4
2017-Oct-19 21:01N 37°52' E 023°39'0 0.3
2017-Oct-19 20:27N 37°52' E 023°39'0 0.2
2017-Oct-19 20:00N 37°53' E 023°39'0 0.2
2017-Oct-19 19:28N 37°53' E 023°39'0 0.1
2017-Oct-19 19:00N 37°53' E 023°39'0 0.1
2017-Oct-19 18:29N 37°53' E 023°39'0 0.9
2017-Oct-19 18:00N 37°53' E 023°39'0 0.2
2017-Oct-19 17:30N 37°53' E 023°39'1 1.1
2017-Oct-19 17:00N 37°54' E 023°38'4 7.1
2017-Oct-19 16:30N 37°57' E 023°36'10 0.4
2017-Oct-18 17:06N 37°48' E 023°28'1 8.1
2017-Oct-18 17:00N 37°49' E 023°29'4 8.3
2017-Oct-18 16:30N 37°53' E 023°32'4 8.3
2017-Oct-18 16:00N 37°56' E 023°35'2 4.6
2017-Oct-18 15:29N 37°57' E 023°32'0 0.0
2017-Oct-18 05:38N 37°57' E 023°32'0 2.2
2017-Oct-18 05:30N 37°58' E 023°32'3 6.7
2017-Oct-18 05:01N 37°57' E 023°37'0 0.0
2017-Oct-18 04:30N 37°57' E 023°37'0 0.0
2017-Oct-18 03:58N 37°57' E 023°37'0 0.0
2017-Oct-18 03:31N 37°57' E 023°37'0 0.0
2017-Oct-18 03:00N 37°57' E 023°37'0 0.3
2017-Oct-18 02:30N 37°57' E 023°37'4 8.0
2017-Oct-18 02:01N 37°55' E 023°33'10 1.4
2017-Oct-17 19:11N 37°50' E 023°23'0 0.7
2017-Oct-17 18:59N 37°50' E 023°23'2 3.6
2017-Oct-17 18:30N 37°50' E 023°25'4 8.2
2017-Oct-17 18:00N 37°52' E 023°29'4 8.1
2017-Oct-17 17:30N 37°55' E 023°33'2 4.9
2017-Oct-17 17:00N 37°57' E 023°33'1 1.8
2017-Oct-17 16:28N 37°57' E 023°32'0 0.0
2017-Oct-17 06:53N 37°57' E 023°32'0 0.0
2017-Oct-17 06:28N 37°57' E 023°32'0 0.0
2017-Oct-17 05:55N 37°57' E 023°32'3 7.3
2017-Oct-17 05:30N 37°57' E 023°36'1 1.3
2017-Oct-17 04:58N 37°57' E 023°37'0 0.0
2017-Oct-17 04:25N 37°57' E 023°37'0 0.0
2017-Oct-17 03:54N 37°57' E 023°37'1 2.8
2017-Oct-17 03:30N 37°57' E 023°36'10 1.3
2017-Oct-16 19:52N 37°51' E 023°25'0 1.1
2017-Oct-16 19:30N 37°51' E 023°24'1 1.9
2017-Oct-16 19:00N 37°50' E 023°25'4 8.1
2017-Oct-16 18:30N 37°52' E 023°29'4 7.9
2017-Oct-16 18:00N 37°55' E 023°33'2 4.6
2017-Oct-16 17:30N 37°57' E 023°33'7 0.4
2017-Oct-16 01:41N 37°52' E 023°28'1 4.3
2017-Oct-16 01:30N 37°51' E 023°27'3 0.4
2017-Oct-15 17:49N 37°50' E 023°23'0 0.9
2017-Oct-15 17:23N 37°50' E 023°24'3 7.2
2017-Oct-15 17:00N 37°51' E 023°27'4 7.8
2017-Oct-15 16:30N 37°53' E 023°30'4 7.9
2017-Oct-15 16:00N 37°56' E 023°34'2 4.0
2017-Oct-15 15:30N 37°57' E 023°32'0 0.0
2017-Oct-14 07:22N 37°57' E 023°32'0 0.0
2017-Oct-14 06:58N 37°57' E 023°32'0 0.0
2017-Oct-14 06:28N 37°57' E 023°32'0 0.0
2017-Oct-14 05:56N 37°57' E 023°32'0 0.0
2017-Oct-14 05:24N 37°57' E 023°32'0 0.0
2017-Oct-14 04:59N 37°57' E 023°32'3 5.7
2017-Oct-14 04:30N 37°57' E 023°36'1 2.0
2017-Oct-14 03:58N 37°57' E 023°37'0 0.0
2017-Oct-14 03:30N 37°57' E 023°37'0 0.0
2017-Oct-14 02:57N 37°57' E 023°37'0 0.0
2017-Oct-14 02:28N 37°57' E 023°37'0 0.0
2017-Oct-14 01:59N 37°57' E 023°37'0 0.0
2017-Oct-14 01:25N 37°57' E 023°37'2 5.4
2017-Oct-14 01:00N 37°56' E 023°35'1 0.2
2017-Oct-13 16:32N 37°55' E 023°33'0 8.0
2017-Oct-13 16:30N 37°55' E 023°33'2 4.5
2017-Oct-13 16:01N 37°58' E 023°32'0 0.0
2017-Oct-13 03:44N 37°57' E 023°32'0 1.7
2017-Oct-13 03:30N 37°58' E 023°33'3 6.4
2017-Oct-13 02:59N 37°57' E 023°37'0 0.0
2017-Oct-13 02:29N 37°57' E 023°37'0 0.0
2017-Oct-13 01:57N 37°57' E 023°37'0 0.0
2017-Oct-13 01:27N 37°57' E 023°37'0 0.0
2017-Oct-13 00:59N 37°57' E 023°37'1 2.4
2017-Oct-13 00:30N 37°57' E 023°36'4 8.6
2017-Oct-13 00:00N 37°54' E 023°32'8 1.2
2017-Oct-12 17:34N 37°49' E 023°23'0 8.7
2017-Oct-12 17:30N 37°50' E 023°24'5 9.3
2017-Oct-12 17:00N 37°52' E 023°29'4 8.1
2017-Oct-12 16:30N 37°55' E 023°33'  

Dump ship's entire track history